sensor_id;sensor_type;location;lat;lon;timestamp;temperature;humidity
18712;DHT22;9485;49.386;8.674;2023-07-13T00:01:50;24.80;56.40
18712;DHT22;9485;49.386;8.674;2023-07-13T00:07:11;24.80;56.20
18712;DHT22;9485;49.386;8.674;2023-07-13T00:12:36;24.80;56.40
18712;DHT22;9485;49.386;8.674;2023-07-13T00:18:00;24.80;56.30
18712;DHT22;9485;49.386;8.674;2023-07-13T00:23:20;24.70;56.20
18712;DHT22;9485;49.386;8.674;2023-07-13T00:28:42;25.30;57.20
18712;DHT22;9485;49.386;8.674;2023-07-13T00:34:04;24.60;56.30
18712;DHT22;9485;49.386;8.674;2023-07-13T00:39:26;24.60;56.70
18712;DHT22;9485;49.386;8.674;2023-07-13T00:46:06;24.50;56.20
18712;DHT22;9485;49.386;8.674;2023-07-13T00:51:10;24.50;55.10
18712;DHT22;9485;49.386;8.674;2023-07-13T00:56:34;24.40;56.10
18712;DHT22;9485;49.386;8.674;2023-07-13T01:01:56;24.30;56.10
18712;DHT22;9485;49.386;8.674;2023-07-13T01:07:19;24.20;56.10
18712;DHT22;9485;49.386;8.674;2023-07-13T01:12:39;24.10;56.00
18712;DHT22;9485;49.386;8.674;2023-07-13T01:18:01;24.00;56.20
18712;DHT22;9485;49.386;8.674;2023-07-13T01:23:24;23.90;56.30
18712;DHT22;9485;49.386;8.674;2023-07-13T01:28:45;23.70;56.10
18712;DHT22;9485;49.386;8.674;2023-07-13T01:34:08;23.60;56.30
18712;DHT22;9485;49.386;8.674;2023-07-13T01:39:32;23.40;56.30
18712;DHT22;9485;49.386;8.674;2023-07-13T01:44:52;23.30;56.20
18712;DHT22;9485;49.386;8.674;2023-07-13T01:50:14;23.20;56.30
18712;DHT22;9485;49.386;8.674;2023-07-13T01:55:36;23.10;56.40
18712;DHT22;9485;49.386;8.674;2023-07-13T02:00:58;23.00;56.50
18712;DHT22;9485;49.386;8.674;2023-07-13T02:06:21;22.80;56.60
18712;DHT22;9485;49.386;8.674;2023-07-13T02:11:42;22.70;56.70
18712;DHT22;9485;49.386;8.674;2023-07-13T02:17:04;22.60;56.90
18712;DHT22;9485;49.386;8.674;2023-07-13T02:22:24;22.40;57.20
18712;DHT22;9485;49.386;8.674;2023-07-13T02:27:46;22.30;57.30
18712;DHT22;9485;49.386;8.674;2023-07-13T02:33:07;22.20;57.20
18712;DHT22;9485;49.386;8.674;2023-07-13T02:38:29;22.20;57.40
18712;DHT22;9485;49.386;8.674;2023-07-13T02:43:51;22.10;57.50
18712;DHT22;9485;49.386;8.674;2023-07-13T02:49:14;22.00;57.50
18712;DHT22;9485;49.386;8.674;2023-07-13T02:54:35;21.90;57.60
18712;DHT22;9485;49.386;8.674;2023-07-13T02:59:57;21.80;57.70
18712;DHT22;9485;49.386;8.674;2023-07-13T03:05:18;21.80;57.80
18712;DHT22;9485;49.386;8.674;2023-07-13T03:10:40;21.70;58.00
18712;DHT22;9485;49.386;8.674;2023-07-13T03:16:05;21.90;58.20
18712;DHT22;9485;49.386;8.674;2023-07-13T03:21:28;21.60;58.10
18712;DHT22;9485;49.386;8.674;2023-07-13T03:26:49;21.50;58.30
18712;DHT22;9485;49.386;8.674;2023-07-13T03:32:13;21.50;58.40
18712;DHT22;9485;49.386;8.674;2023-07-13T03:37:33;21.40;58.50
18712;DHT22;9485;49.386;8.674;2023-07-13T03:42:54;21.30;58.60
18712;DHT22;9485;49.386;8.674;2023-07-13T03:48:17;21.30;58.80
18712;DHT22;9485;49.386;8.674;2023-07-13T03:53:39;21.20;58.90
18712;DHT22;9485;49.386;8.674;2023-07-13T03:59:01;21.20;59.10
18712;DHT22;9485;49.386;8.674;2023-07-13T04:04:25;21.20;59.20
18712;DHT22;9485;49.386;8.674;2023-07-13T04:09:47;21.20;59.30
18712;DHT22;9485;49.386;8.674;2023-07-13T04:15:08;21.20;59.40
18712;DHT22;9485;49.386;8.674;2023-07-13T04:20:30;21.20;59.40
18712;DHT22;9485;49.386;8.674;2023-07-13T04:25:52;21.20;59.40
18712;DHT22;9485;49.386;8.674;2023-07-13T04:31:14;21.10;59.40
18712;DHT22;9485;49.386;8.674;2023-07-13T04:36:36;21.10;59.50
18712;DHT22;9485;49.386;8.674;2023-07-13T04:41:57;21.10;59.80
18712;DHT22;9485;49.386;8.674;2023-07-13T04:47:18;21.10;60.00
18712;DHT22;9485;49.386;8.674;2023-07-13T04:52:41;21.10;60.10
18712;DHT22;9485;49.386;8.674;2023-07-13T04:58:02;21.10;60.20
18712;DHT22;9485;49.386;8.674;2023-07-13T05:03:24;21.20;60.40
18712;DHT22;9485;49.386;8.674;2023-07-13T05:08:46;21.30;60.60
18712;DHT22;9485;49.386;8.674;2023-07-13T05:14:08;21.50;60.30
18712;DHT22;9485;49.386;8.674;2023-07-13T05:19:30;21.60;60.40
18712;DHT22;9485;49.386;8.674;2023-07-13T05:24:54;21.80;60.80
18712;DHT22;9485;49.386;8.674;2023-07-13T05:30:16;22.00;60.30
18712;DHT22;9485;49.386;8.674;2023-07-13T05:35:38;22.20;60.10
18712;DHT22;9485;49.386;8.674;2023-07-13T05:41:01;22.40;60.10
18712;DHT22;9485;49.386;8.674;2023-07-13T05:46:21;22.60;59.80
18712;DHT22;9485;49.386;8.674;2023-07-13T05:51:42;22.80;59.70
18712;DHT22;9485;49.386;8.674;2023-07-13T05:57:05;23.00;59.40
18712;DHT22;9485;49.386;8.674;2023-07-13T06:02:28;23.20;59.00
18712;DHT22;9485;49.386;8.674;2023-07-13T06:07:50;23.40;59.10
18712;DHT22;9485;49.386;8.674;2023-07-13T06:13:12;23.60;59.00
18712;DHT22;9485;49.386;8.674;2023-07-13T06:18:34;23.70;58.30
18712;DHT22;9485;49.386;8.674;2023-07-13T06:23:56;23.90;58.00
18712;DHT22;9485;49.386;8.674;2023-07-13T06:29:19;23.90;57.60
18712;DHT22;9485;49.386;8.674;2023-07-13T06:34:43;24.00;57.20
18712;DHT22;9485;49.386;8.674;2023-07-13T06:40:10;24.10;57.90
18712;DHT22;9485;49.386;8.674;2023-07-13T06:45:41;24.10;57.20
18712;DHT22;9485;49.386;8.674;2023-07-13T06:51:13;24.30;56.60
18712;DHT22;9485;49.386;8.674;2023-07-13T06:56:36;24.40;57.30
18712;DHT22;9485;49.386;8.674;2023-07-13T07:01:59;24.60;57.10
18712;DHT22;9485;49.386;8.674;2023-07-13T07:07:24;24.70;56.70
18712;DHT22;9485;49.386;8.674;2023-07-13T07:12:48;24.90;56.60
18712;DHT22;9485;49.386;8.674;2023-07-13T07:18:11;25.10;56.50
18712;DHT22;9485;49.386;8.674;2023-07-13T07:23:32;25.30;56.00
18712;DHT22;9485;49.386;8.674;2023-07-13T07:28:54;25.70;56.80
18712;DHT22;9485;49.386;8.674;2023-07-13T07:34:16;26.40;57.80
18712;DHT22;9485;49.386;8.674;2023-07-13T07:39:37;27.30;57.60
18712;DHT22;9485;49.386;8.674;2023-07-13T07:44:59;28.30;57.90
18712;DHT22;9485;49.386;8.674;2023-07-13T07:50:23;29.70;57.40
18712;DHT22;9485;49.386;8.674;2023-07-13T07:55:45;30.80;55.10
18712;DHT22;9485;49.386;8.674;2023-07-13T08:01:09;31.70;55.10
18712;DHT22;9485;49.386;8.674;2023-07-13T08:06:33;32.60;54.00
18712;DHT22;9485;49.386;8.674;2023-07-13T08:11:56;33.40;51.90
18712;DHT22;9485;49.386;8.674;2023-07-13T08:17:19;34.10;52.10
18712;DHT22;9485;49.386;8.674;2023-07-13T08:22:46;34.70;51.40
18712;DHT22;9485;49.386;8.674;2023-07-13T08:28:07;35.30;49.50
18712;DHT22;9485;49.386;8.674;2023-07-13T08:33:28;35.80;49.70
18712;DHT22;9485;49.386;8.674;2023-07-13T08:38:51;36.20;49.10
18712;DHT22;9485;49.386;8.674;2023-07-13T08:44:20;36.60;47.80
18712;DHT22;9485;49.386;8.674;2023-07-13T08:49:48;36.90;44.60
18712;DHT22;9485;49.386;8.674;2023-07-13T08:55:13;37.10;46.70
18712;DHT22;9485;49.386;8.674;2023-07-13T09:00:42;37.10;44.40
18712;DHT22;9485;49.386;8.674;2023-07-13T09:06:12;37.10;44.40
18712;DHT22;9485;49.386;8.674;2023-07-13T09:11:45;37.20;44.20
18712;DHT22;9485;49.386;8.674;2023-07-13T09:17:17;37.10;42.30
18712;DHT22;9485;49.386;8.674;2023-07-13T09:22:40;37.20;41.90
18712;DHT22;9485;49.386;8.674;2023-07-13T09:28:11;37.10;43.60
18712;DHT22;9485;49.386;8.674;2023-07-13T09:33:37;37.00;42.20
18712;DHT22;9485;49.386;8.674;2023-07-13T09:39:03;37.00;44.20
18712;DHT22;9485;49.386;8.674;2023-07-13T09:44:35;37.10;42.20
18712;DHT22;9485;49.386;8.674;2023-07-13T09:50:00;37.10;41.90
18712;DHT22;9485;49.386;8.674;2023-07-13T09:55:27;37.20;43.00
18712;DHT22;9485;49.386;8.674;2023-07-13T10:00:57;37.20;41.00
18712;DHT22;9485;49.386;8.674;2023-07-13T10:06:21;37.20;40.30
18712;DHT22;9485;49.386;8.674;2023-07-13T10:11:43;36.80;41.60
18712;DHT22;9485;49.386;8.674;2023-07-13T10:17:12;36.10;41.20
18712;DHT22;9485;49.386;8.674;2023-07-13T10:22:42;35.60;40.40
18712;DHT22;9485;49.386;8.674;2023-07-13T10:28:19;35.10;41.10
18712;DHT22;9485;49.386;8.674;2023-07-13T10:33:49;34.60;41.60
18712;DHT22;9485;49.386;8.674;2023-07-13T10:39:15;34.20;42.10
18712;DHT22;9485;49.386;8.674;2023-07-13T10:44:38;33.80;41.20
18712;DHT22;9485;49.386;8.674;2023-07-13T10:50:01;33.60;42.90
18712;DHT22;9485;49.386;8.674;2023-07-13T10:55:37;33.60;42.80
18712;DHT22;9485;49.386;8.674;2023-07-13T11:01:06;33.50;40.90
18712;DHT22;9485;49.386;8.674;2023-07-13T11:06:36;33.50;42.10
18712;DHT22;9485;49.386;8.674;2023-07-13T11:11:59;33.30;41.70
18712;DHT22;9485;49.386;8.674;2023-07-13T11:17:35;33.20;43.80
18712;DHT22;9485;49.386;8.674;2023-07-13T11:23:28;33.30;41.60
18712;DHT22;9485;49.386;8.674;2023-07-13T11:28:51;33.40;40.90
18712;DHT22;9485;49.386;8.674;2023-07-13T11:34:15;33.40;43.40
18712;DHT22;9485;49.386;8.674;2023-07-13T11:39:42;33.30;42.00
18712;DHT22;9485;49.386;8.674;2023-07-13T11:45:19;33.30;41.70
18712;DHT22;9485;49.386;8.674;2023-07-13T11:50:50;33.60;41.00
18712;DHT22;9485;49.386;8.674;2023-07-13T11:56:16;33.90;40.80
18712;DHT22;9485;49.386;8.674;2023-07-13T12:01:42;34.10;42.40
18712;DHT22;9485;49.386;8.674;2023-07-13T12:07:14;34.50;41.30
18712;DHT22;9485;49.386;8.674;2023-07-13T12:12:40;35.00;40.40
18712;DHT22;9485;49.386;8.674;2023-07-13T12:18:12;35.40;41.10
18712;DHT22;9485;49.386;8.674;2023-07-13T12:23:35;35.70;39.60
18712;DHT22;9485;49.386;8.674;2023-07-13T12:29:00;35.70;41.30
18712;DHT22;9485;49.386;8.674;2023-07-13T12:34:25;36.00;40.20
18712;DHT22;9485;49.386;8.674;2023-07-13T12:39:49;36.30;40.70
18712;DHT22;9485;49.386;8.674;2023-07-13T12:45:20;36.50;40.20
18712;DHT22;9485;49.386;8.674;2023-07-13T12:50:47;36.50;37.60
18712;DHT22;9485;49.386;8.674;2023-07-13T12:56:18;36.30;38.30
18712;DHT22;9485;49.386;8.674;2023-07-13T13:01:43;36.00;37.00
18712;DHT22;9485;49.386;8.674;2023-07-13T13:07:08;35.60;38.70
18712;DHT22;9485;49.386;8.674;2023-07-13T13:12:30;35.30;38.50
18712;DHT22;9485;49.386;8.674;2023-07-13T13:17:53;35.00;38.70
18712;DHT22;9485;49.386;8.674;2023-07-13T13:23:15;34.50;38.20
18712;DHT22;9485;49.386;8.674;2023-07-13T13:28:37;34.10;38.90
18712;DHT22;9485;49.386;8.674;2023-07-13T13:33:59;33.80;39.20
18712;DHT22;9485;49.386;8.674;2023-07-13T13:39:22;33.70;39.30
18712;DHT22;9485;49.386;8.674;2023-07-13T13:44:44;33.40;39.40
18712;DHT22;9485;49.386;8.674;2023-07-13T13:50:16;33.40;39.80
18712;DHT22;9485;49.386;8.674;2023-07-13T13:55:38;33.30;38.40
18712;DHT22;9485;49.386;8.674;2023-07-13T14:01:00;33.30;39.80
18712;DHT22;9485;49.386;8.674;2023-07-13T14:06:22;33.20;40.10
18712;DHT22;9485;49.386;8.674;2023-07-13T14:11:43;33.30;40.30
18712;DHT22;9485;49.386;8.674;2023-07-13T14:17:17;33.50;40.40
18712;DHT22;9485;49.386;8.674;2023-07-13T14:22:42;33.60;39.30
18712;DHT22;9485;49.386;8.674;2023-07-13T14:28:19;33.60;39.40
18712;DHT22;9485;49.386;8.674;2023-07-13T14:33:44;33.60;37.80
18712;DHT22;9485;49.386;8.674;2023-07-13T14:39:12;33.30;38.90
18712;DHT22;9485;49.386;8.674;2023-07-13T14:44:34;33.20;37.90
18712;DHT22;9485;49.386;8.674;2023-07-13T14:49:55;32.90;39.00
18712;DHT22;9485;49.386;8.674;2023-07-13T14:55:18;32.60;39.10
18712;DHT22;9485;49.386;8.674;2023-07-13T15:00:41;32.40;39.10
18712;DHT22;9485;49.386;8.674;2023-07-13T15:06:02;32.10;39.70
18712;DHT22;9485;49.386;8.674;2023-07-13T15:11:25;32.00;39.70
18712;DHT22;9485;49.386;8.674;2023-07-13T15:16:47;31.80;39.80
18712;DHT22;9485;49.386;8.674;2023-07-13T15:22:10;31.80;40.20
18712;DHT22;9485;49.386;8.674;2023-07-13T15:27:32;31.80;40.10
18712;DHT22;9485;49.386;8.674;2023-07-13T15:32:53;31.80;39.80
18712;DHT22;9485;49.386;8.674;2023-07-13T15:38:15;31.70;39.90
18712;DHT22;9485;49.386;8.674;2023-07-13T15:43:38;31.70;39.80
18712;DHT22;9485;49.386;8.674;2023-07-13T15:49:00;31.60;39.70
18712;DHT22;9485;49.386;8.674;2023-07-13T15:54:20;31.50;40.00
18712;DHT22;9485;49.386;8.674;2023-07-13T15:59:45;31.30;39.90
18712;DHT22;9485;49.386;8.674;2023-07-13T16:05:06;31.20;39.60
18712;DHT22;9485;49.386;8.674;2023-07-13T16:10:30;31.00;40.00
18712;DHT22;9485;49.386;8.674;2023-07-13T16:15:54;30.90;39.20
18712;DHT22;9485;49.386;8.674;2023-07-13T16:21:15;30.80;39.80
18712;DHT22;9485;49.386;8.674;2023-07-13T16:26:38;30.60;40.10
18712;DHT22;9485;49.386;8.674;2023-07-13T16:32:04;30.40;40.10
18712;DHT22;9485;49.386;8.674;2023-07-13T16:37:28;30.40;39.80
18712;DHT22;9485;49.386;8.674;2023-07-13T16:42:50;30.30;39.80
18712;DHT22;9485;49.386;8.674;2023-07-13T16:48:16;30.10;40.00
18712;DHT22;9485;49.386;8.674;2023-07-13T16:53:38;30.00;40.00
18712;DHT22;9485;49.386;8.674;2023-07-13T16:58:59;29.90;40.40
18712;DHT22;9485;49.386;8.674;2023-07-13T17:04:22;29.90;40.30
18712;DHT22;9485;49.386;8.674;2023-07-13T17:09:44;29.90;40.30
18712;DHT22;9485;49.386;8.674;2023-07-13T17:15:09;29.80;40.60
18712;DHT22;9485;49.386;8.674;2023-07-13T17:20:34;29.80;40.40
18712;DHT22;9485;49.386;8.674;2023-07-13T17:25:59;29.70;40.70
18712;DHT22;9485;49.386;8.674;2023-07-13T17:31:21;29.60;41.10
18712;DHT22;9485;49.386;8.674;2023-07-13T17:36:43;29.40;41.30
18712;DHT22;9485;49.386;8.674;2023-07-13T17:42:05;29.20;41.40
18712;DHT22;9485;49.386;8.674;2023-07-13T17:47:27;29.00;41.50
18712;DHT22;9485;49.386;8.674;2023-07-13T17:52:50;28.80;41.50
18712;DHT22;9485;49.386;8.674;2023-07-13T17:58:10;28.70;41.50
18712;DHT22;9485;49.386;8.674;2023-07-13T18:03:32;28.50;41.90
18712;DHT22;9485;49.386;8.674;2023-07-13T18:09:13;28.50;41.90
18712;DHT22;9485;49.386;8.674;2023-07-13T18:14:36;28.40;41.20
18712;DHT22;9485;49.386;8.674;2023-07-13T18:19:57;28.30;42.20
18712;DHT22;9485;49.386;8.674;2023-07-13T18:25:21;28.30;42.20
18712;DHT22;9485;49.386;8.674;2023-07-13T18:30:46;28.20;41.90
18712;DHT22;9485;49.386;8.674;2023-07-13T18:36:14;28.10;42.10
18712;DHT22;9485;49.386;8.674;2023-07-13T18:41:37;28.00;42.10
18712;DHT22;9485;49.386;8.674;2023-07-13T18:46:57;27.90;42.10
18712;DHT22;9485;49.386;8.674;2023-07-13T18:52:19;27.80;42.20
18712;DHT22;9485;49.386;8.674;2023-07-13T18:57:42;27.70;42.30
18712;DHT22;9485;49.386;8.674;2023-07-13T19:03:04;27.60;42.20
18712;DHT22;9485;49.386;8.674;2023-07-13T19:08:32;27.10;42.20
18712;DHT22;9485;49.386;8.674;2023-07-13T19:13:55;27.40;42.50
18712;DHT22;9485;49.386;8.674;2023-07-13T19:19:16;27.30;42.40
18712;DHT22;9485;49.386;8.674;2023-07-13T19:24:38;27.10;42.90
18712;DHT22;9485;49.386;8.674;2023-07-13T19:30:00;27.00;43.20
18712;DHT22;9485;49.386;8.674;2023-07-13T19:35:23;26.80;43.40
18712;DHT22;9485;49.386;8.674;2023-07-13T19:40:47;26.70;43.60
18712;DHT22;9485;49.386;8.674;2023-07-13T19:46:18;26.50;43.70
18712;DHT22;9485;49.386;8.674;2023-07-13T19:51:41;26.30;43.80
18712;DHT22;9485;49.386;8.674;2023-07-13T19:57:02;26.10;44.00
18712;DHT22;9485;49.386;8.674;2023-07-13T20:02:25;26.00;44.40
18712;DHT22;9485;49.386;8.674;2023-07-13T20:07:49;25.90;44.60
18712;DHT22;9485;49.386;8.674;2023-07-13T20:13:13;25.70;44.80
18712;DHT22;9485;49.386;8.674;2023-07-13T20:18:36;25.50;45.00
18712;DHT22;9485;49.386;8.674;2023-07-13T20:23:57;25.40;45.20
18712;DHT22;9485;49.386;8.674;2023-07-13T20:29:18;25.30;45.50
18712;DHT22;9485;49.386;8.674;2023-07-13T20:34:40;25.10;45.50
18712;DHT22;9485;49.386;8.674;2023-07-13T20:40:04;25.00;45.50
18712;DHT22;9485;49.386;8.674;2023-07-13T20:45:33;24.90;45.90
18712;DHT22;9485;49.386;8.674;2023-07-13T20:50:58;24.80;46.30
18712;DHT22;9485;49.386;8.674;2023-07-13T20:56:25;24.70;46.40
18712;DHT22;9485;49.386;8.674;2023-07-13T21:01:48;24.60;46.40
18712;DHT22;9485;49.386;8.674;2023-07-13T21:07:17;24.40;46.60
18712;DHT22;9485;49.386;8.674;2023-07-13T21:12:39;24.40;46.70
18712;DHT22;9485;49.386;8.674;2023-07-13T21:18:01;24.30;47.00
18712;DHT22;9485;49.386;8.674;2023-07-13T21:23:27;24.20;47.30
18712;DHT22;9485;49.386;8.674;2023-07-13T21:28:49;24.10;47.40
18712;DHT22;9485;49.386;8.674;2023-07-13T21:34:15;24.00;47.60
18712;DHT22;9485;49.386;8.674;2023-07-13T21:39:39;24.00;47.80
18712;DHT22;9485;49.386;8.674;2023-07-13T21:45:00;23.80;48.00
18712;DHT22;9485;49.386;8.674;2023-07-13T21:50:37;23.70;48.00
18712;DHT22;9485;49.386;8.674;2023-07-13T21:56:01;23.70;49.00
18712;DHT22;9485;49.386;8.674;2023-07-13T22:01:26;23.70;48.70
18712;DHT22;9485;49.386;8.674;2023-07-13T22:06:52;23.70;48.90
18712;DHT22;9485;49.386;8.674;2023-07-13T22:12:16;23.60;49.00
18712;DHT22;9485;49.386;8.674;2023-07-13T22:17:39;23.60;48.80
18712;DHT22;9485;49.386;8.674;2023-07-13T22:23:15;23.60;49.00
18712;DHT22;9485;49.386;8.674;2023-07-13T22:28:39;23.50;49.00
18712;DHT22;9485;49.386;8.674;2023-07-13T22:34:00;23.40;49.10
18712;DHT22;9485;49.386;8.674;2023-07-13T22:39:24;23.30;49.20
18712;DHT22;9485;49.386;8.674;2023-07-13T22:44:49;23.20;49.40
18712;DHT22;9485;49.386;8.674;2023-07-13T22:50:13;23.10;49.50
18712;DHT22;9485;49.386;8.674;2023-07-13T22:55:36;23.10;49.70
18712;DHT22;9485;49.386;8.674;2023-07-13T23:01:00;23.00;49.80
18712;DHT22;9485;49.386;8.674;2023-07-13T23:06:25;23.00;50.00
18712;DHT22;9485;49.386;8.674;2023-07-13T23:11:48;22.80;49.90
18712;DHT22;9485;49.386;8.674;2023-07-13T23:17:11;22.80;50.10
18712;DHT22;9485;49.386;8.674;2023-07-13T23:22:33;22.80;50.30
18712;DHT22;9485;49.386;8.674;2023-07-13T23:27:55;22.70;50.40
18712;DHT22;9485;49.386;8.674;2023-07-13T23:33:23;22.70;50.50
18712;DHT22;9485;49.386;8.674;2023-07-13T23:38:47;22.60;50.60
18712;DHT22;9485;49.386;8.674;2023-07-13T23:44:08;22.60;50.60
18712;DHT22;9485;49.386;8.674;2023-07-13T23:49:32;22.50;50.80
18712;DHT22;9485;49.386;8.674;2023-07-13T23:54:53;22.50;50.90
